createdAt,value
2019-02-06T00:02:05.944Z,99499.78
2019-02-06T00:04:53.470Z,99502.27
2019-02-06T00:07:41.209Z,99503.38
2019-02-06T00:10:28.829Z,99504.14
2019-02-06T00:13:16.357Z,99504.33
2019-02-06T00:16:04.017Z,99510.81
2019-02-06T00:18:51.922Z,99508.22
2019-02-06T00:21:39.594Z,99510.81
2019-02-06T00:24:26.782Z,99513.59
2019-02-06T00:27:14.097Z,99508.94
2019-02-06T00:30:01.519Z,99515.81
2019-02-06T00:32:49.347Z,99512.84
2019-02-06T00:35:37.080Z,99507.83
2019-02-06T00:38:25.528Z,99514.31
2019-02-06T00:41:13.053Z,99509.23
2019-02-06T00:44:00.477Z,99519.13
2019-02-06T00:46:47.903Z,99520.34
2019-02-06T00:49:35.532Z,99514.31
2019-02-06T00:52:23.060Z,99521.56
2019-02-06T00:55:11.408Z,99528.05
2019-02-06T00:57:58.829Z,99518.78
2019-02-06T01:00:46.047Z,99506.34
2019-02-06T01:03:33.368Z,99502.92
2019-02-06T01:06:20.587Z,99494.67
2019-02-06T01:09:09.851Z,99492.53
2019-02-06T01:11:56.866Z,99494.30
2019-02-06T01:14:44.398Z,99497.65
2019-02-06T01:17:31.615Z,99490.39
2019-02-06T01:20:19.548Z,99494.09
2019-02-06T01:23:06.973Z,99494.86
2019-02-06T01:25:54.191Z,99499.94
2019-02-06T01:28:42.031Z,99493.17
2019-02-06T01:31:29.866Z,99487.25
2019-02-06T01:34:16.975Z,99488.89
2019-02-06T01:37:04.298Z,99494.66
2019-02-06T01:39:51.725Z,99489.48
2019-02-06T01:42:38.840Z,99487.66
2019-02-06T01:45:26.471Z,99486.35
2019-02-06T01:48:15.324Z,99479.48
2019-02-06T01:51:02.444Z,99466.20
2019-02-06T01:53:49.664Z,99466.30
2019-02-06T01:56:37.287Z,99468.13
2019-02-06T01:59:24.409Z,99461.11
2019-02-06T02:02:12.034Z,99462.02
2019-02-06T02:04:59.830Z,99451.83
2019-02-06T02:07:48.619Z,99449.12
2019-02-06T02:10:35.747Z,99449.61
2019-02-06T02:13:23.270Z,99445.14
2019-02-06T02:16:11.924Z,99449.95
2019-02-06T02:18:59.152Z,99447.01
2019-02-06T02:21:46.254Z,99439.95
2019-02-06T02:24:33.579Z,99438.47
2019-02-06T02:27:20.696Z,99441.06
2019-02-06T02:30:14.154Z,99440.44
2019-02-06T02:33:01.687Z,99444.64
2019-02-06T02:35:49.322Z,99432.85
2019-02-06T02:38:36.840Z,99433.50
2019-02-06T02:41:24.574Z,99428.63
2019-02-06T02:44:12.105Z,99431.86
2019-02-06T02:46:59.748Z,99432.22
2019-02-06T02:49:47.157Z,99428.52
2019-02-06T02:52:34.894Z,99426.58
2019-02-06T02:55:22.310Z,99431.88
2019-02-06T02:58:09.550Z,99424.44
2019-02-06T03:01:13.744Z,99425.20
2019-02-06T03:04:03.113Z,99416.13
2019-02-06T03:06:51.054Z,99413.16
2019-02-06T03:09:38.385Z,99407.05
2019-02-06T03:12:25.714Z,99406.97
2019-02-06T03:15:13.847Z,99408.62
2019-02-06T03:18:01.576Z,99407.70
2019-02-06T03:20:48.884Z,99412.97
2019-02-06T03:23:37.334Z,99404.34
2019-02-06T03:26:24.455Z,99402.95
2019-02-06T03:29:12.185Z,99402.51
2019-02-06T03:31:59.412Z,99395.71
2019-02-06T03:34:46.824Z,99396.01
2019-02-06T03:37:34.910Z,99391.46
2019-02-06T03:40:22.607Z,99381.80
2019-02-06T03:43:11.142Z,99382.83
2019-02-06T03:45:58.468Z,99380.88
2019-02-06T03:48:46.300Z,99373.55
2019-02-06T03:51:34.030Z,99375.87
2019-02-06T03:54:21.353Z,99376.14
2019-02-06T03:57:09.185Z,99366.22
2019-02-06T03:59:56.817Z,99364.33
2019-02-06T04:02:44.601Z,99363.02
2019-02-06T04:05:32.540Z,99361.05
2019-02-06T04:08:20.037Z,99363.74
2019-02-06T04:11:07.534Z,99362.97
2019-02-06T04:13:54.777Z,99358.55
2019-02-06T04:16:42.485Z,99363.83
2019-02-06T04:19:30.524Z,99360.77
2019-02-06T04:22:17.741Z,99363.19
2019-02-06T04:25:06.907Z,99368.86
2019-02-06T04:27:54.328Z,99371.75
2019-02-06T04:30:42.269Z,99367.94
2019-02-06T04:33:29.495Z,99362.67
2019-02-06T04:36:17.217Z,99376.94
2019-02-06T04:39:07.903Z,99378.78
2019-02-06T04:41:56.163Z,99382.86
2019-02-06T04:44:43.788Z,99383.78
2019-02-06T04:47:31.213Z,99384.33
2019-02-06T04:50:19.099Z,99374.67
2019-02-06T04:53:06.574Z,99370.98
2019-02-06T04:55:54.104Z,99368.91
2019-02-06T04:58:41.727Z,99368.73
2019-02-06T05:01:29.049Z,99363.36
2019-02-06T05:04:16.578Z,99368.47
2019-02-06T05:07:04.518Z,99367.32
2019-02-06T05:09:51.837Z,99371.95
2019-02-06T05:12:38.953Z,99371.50
2019-02-06T05:15:26.476Z,99373.06
2019-02-06T05:18:13.798Z,99373.30
2019-02-06T05:21:01.532Z,99366.55
2019-02-06T05:23:49.172Z,99372.00
2019-02-06T05:26:36.479Z,99369.58
2019-02-06T05:29:23.907Z,99358.34
2019-02-06T05:32:10.926Z,99360.28
2019-02-06T05:34:58.590Z,99354.16
2019-02-06T05:37:45.871Z,99363.97
2019-02-06T05:40:33.195Z,99358.11
2019-02-06T05:43:20.411Z,98938.38
2019-02-06T05:46:07.837Z,99351.33
2019-02-06T05:48:54.958Z,99343.11
2019-02-06T05:51:42.172Z,99345.42
2019-02-06T05:54:29.699Z,99343.20
2019-02-06T05:57:17.124Z,99336.88
2019-02-06T06:00:17.052Z,99337.41
2019-02-06T06:03:04.769Z,99340.89
2019-02-06T06:05:52.298Z,99345.53
2019-02-06T06:08:41.255Z,99349.17
2019-02-06T06:11:28.884Z,99348.97
2019-02-06T06:14:16.613Z,99352.08
2019-02-06T06:17:04.345Z,99348.97
2019-02-06T06:19:51.767Z,99351.48
2019-02-06T06:22:39.398Z,99349.46
2019-02-06T06:25:27.072Z,99355.58
2019-02-06T06:28:14.858Z,99346.61
2019-02-06T06:31:02.286Z,99342.97
2019-02-06T06:33:50.450Z,99339.83
2019-02-06T06:36:37.746Z,99338.09
2019-02-06T06:39:24.875Z,99332.24
2019-02-06T06:42:12.289Z,99333.62
2019-02-06T06:44:59.634Z,99332.53
2019-02-06T06:47:47.237Z,99329.09
2019-02-06T06:50:34.099Z,99332.24
2019-02-06T06:53:21.470Z,99333.08
2019-02-06T06:56:09.100Z,99336.63
2019-02-06T06:58:56.521Z,99338.50
2019-02-06T07:01:44.458Z,99335.82
2019-02-06T07:04:31.779Z,99342.34
2019-02-06T07:07:19.661Z,99337.23
2019-02-06T07:10:12.157Z,99333.25
2019-02-06T07:12:58.969Z,99338.50
2019-02-06T07:15:47.107Z,99334.61
2019-02-06T07:18:34.429Z,99338.64
2019-02-06T07:21:22.059Z,99331.78
2019-02-06T07:24:09.586Z,99330.81
2019-02-06T07:26:57.113Z,99330.88
2019-02-06T07:29:44.231Z,99333.25
2019-02-06T07:32:32.166Z,99332.41
2019-02-06T07:35:19.894Z,99338.05
2019-02-06T07:38:07.214Z,99338.94
2019-02-06T07:40:54.436Z,99339.86
2019-02-06T07:43:42.165Z,99340.32
2019-02-06T07:46:29.692Z,99341.21
2019-02-06T07:49:16.809Z,99343.69
2019-02-06T07:52:04.266Z,99342.81
2019-02-06T07:54:52.272Z,99335.63
2019-02-06T07:57:39.694Z,99342.91
2019-02-06T08:00:27.120Z,99336.67
2019-02-06T08:03:14.235Z,99338.26
2019-02-06T08:06:02.274Z,99340.44
2019-02-06T08:08:50.006Z,99341.44
2019-02-06T08:11:37.121Z,99332.17
2019-02-06T08:14:24.750Z,99325.63
2019-02-06T08:17:12.277Z,99329.69
2019-02-06T08:19:59.707Z,99325.77
2019-02-06T08:22:47.669Z,99328.75
2019-02-06T08:25:35.373Z,99333.16
2019-02-06T08:28:22.690Z,99327.67
2019-02-06T08:31:09.812Z,99324.20
2019-02-06T08:33:57.356Z,99326.64
2019-02-06T08:36:44.764Z,99323.97
2019-02-06T08:39:32.387Z,99321.16
2019-02-06T08:42:20.018Z,99325.70
2019-02-06T08:45:15.997Z,99326.36
2019-02-06T08:48:03.360Z,99327.36
2019-02-06T08:50:50.989Z,99328.11
2019-02-06T08:53:38.551Z,99320.08
2019-02-06T08:56:25.839Z,99325.48
2019-02-06T08:59:13.143Z,99327.03
2019-02-06T09:02:00.687Z,99322.09
2019-02-06T09:04:55.428Z,99321.53
2019-02-06T09:07:36.865Z,99319.52
2019-02-06T09:10:26.956Z,99320.52
2019-02-06T09:13:14.480Z,99313.07
2019-02-06T09:16:02.930Z,99308.47
2019-02-06T09:18:50.349Z,99304.31
2019-02-06T09:21:38.388Z,99310.48
2019-02-06T09:24:26.222Z,99309.17
2019-02-06T09:27:13.652Z,99308.36
2019-02-06T09:30:01.069Z,99305.26
2019-02-06T09:32:48.426Z,99304.52
2019-02-06T09:35:36.020Z,99299.43
2019-02-06T09:38:23.350Z,99302.47
2019-02-06T09:41:10.941Z,99302.13
2019-02-06T09:43:59.361Z,99297.07
2019-02-06T09:46:46.844Z,99294.50
2019-02-06T09:49:34.817Z,99284.73
2019-02-06T09:52:25.631Z,99290.30
2019-02-06T09:55:11.572Z,99286.48
2019-02-06T09:57:59.507Z,99284.59
2019-02-06T10:00:47.139Z,99281.70
2019-02-06T10:03:34.252Z,99290.27
2019-02-06T10:06:21.882Z,99291.73
2019-02-06T10:09:09.307Z,99278.63
2019-02-06T10:11:57.045Z,99282.53
2019-02-06T10:14:44.366Z,99278.11
2019-02-06T10:17:31.989Z,99276.37
2019-02-06T10:20:25.293Z,99272.82
2019-02-06T10:23:12.891Z,99274.93
2019-02-06T10:26:00.301Z,99271.27
2019-02-06T10:28:47.932Z,99268.75
2019-02-06T10:31:35.627Z,99262.12
2019-02-06T10:34:22.883Z,99264.31
2019-02-06T10:37:10.303Z,99259.50
2019-02-06T10:39:58.712Z,99258.52
2019-02-06T10:42:46.382Z,99255.16
2019-02-06T10:45:33.906Z,99242.64
2019-02-06T10:48:21.129Z,99248.44
2019-02-06T10:51:09.376Z,99244.70
2019-02-06T10:53:56.691Z,99237.56
2019-02-06T10:56:44.219Z,99241.21
2019-02-06T10:59:31.746Z,99238.22
2019-02-06T11:02:19.275Z,99237.86
2019-02-06T11:05:27.915Z,99234.50
2019-02-06T11:08:15.520Z,99225.31
2019-02-06T11:11:03.114Z,99216.41
2019-02-06T11:13:50.778Z,99214.92
2019-02-06T11:16:38.211Z,99207.36
2019-02-06T11:19:25.263Z,99198.35
2019-02-06T11:22:12.744Z,99198.44
2019-02-06T11:25:00.145Z,99194.13
2019-02-06T11:27:47.489Z,99187.51
2019-02-06T11:30:37.454Z,99180.60
2019-02-06T11:33:24.997Z,99176.09
2019-02-06T11:36:23.550Z,99177.74
2019-02-06T11:39:01.384Z,99180.38
2019-02-06T11:41:48.620Z,99165.28
2019-02-06T11:44:38.736Z,99170.27
2019-02-06T11:47:26.316Z,99157.00
2019-02-06T11:50:17.130Z,99157.57
2019-02-06T11:53:05.446Z,99154.61
2019-02-06T11:55:52.581Z,99151.52
2019-02-06T11:58:40.314Z,99145.36
2019-02-06T12:01:28.455Z,99138.74
2019-02-06T12:04:16.083Z,99145.29
2019-02-06T12:07:03.611Z,99140.48
2019-02-06T12:09:51.169Z,99134.22
2019-02-06T12:12:38.775Z,99134.92
2019-02-06T12:15:26.395Z,99128.91
2019-02-06T12:18:13.712Z,99129.90
2019-02-06T12:21:01.352Z,99120.56
2019-02-06T12:23:49.383Z,99118.94
2019-02-06T12:26:37.113Z,99111.57
2019-02-06T12:29:24.851Z,99112.10
2019-02-06T12:32:12.371Z,99106.03
2019-02-06T12:34:59.889Z,99103.63
2019-02-06T12:37:47.421Z,99085.78
2019-02-06T12:40:35.155Z,99085.75
2019-02-06T12:43:22.994Z,99082.38
2019-02-06T12:46:09.901Z,99076.72
2019-02-06T12:48:57.432Z,99076.22
2019-02-06T12:51:45.158Z,99067.81
2019-02-06T12:54:32.890Z,99095.64
2019-02-06T12:57:20.334Z,99069.30
2019-02-06T13:00:23.715Z,99070.34
2019-02-06T13:03:12.202Z,99067.91
2019-02-06T13:05:59.688Z,99074.82
2019-02-06T13:08:46.699Z,99075.00
2019-02-06T13:11:34.123Z,99077.71
2019-02-06T13:14:21.553Z,99086.94
2019-02-06T13:17:09.200Z,99084.48
2019-02-06T13:19:56.601Z,99084.08
2019-02-06T13:22:44.437Z,99086.48
2019-02-06T13:25:31.655Z,99089.61
2019-02-06T13:28:18.983Z,99088.02
2019-02-06T13:31:06.347Z,99084.98
2019-02-06T13:33:55.363Z,99077.44
2019-02-06T13:36:42.480Z,99091.91
2019-02-06T13:39:30.311Z,99085.01
2019-02-06T13:42:18.349Z,99090.25
2019-02-06T13:45:12.331Z,99084.06
2019-02-06T13:47:59.694Z,99085.92
2019-02-06T13:50:53.318Z,99075.83
2019-02-06T13:53:42.437Z,99078.02
2019-02-06T13:56:29.625Z,99070.59
2019-02-06T13:59:17.007Z,99076.84
2019-02-06T14:02:05.402Z,99067.97
2019-02-06T14:04:53.214Z,99068.96
2019-02-06T14:07:40.730Z,99072.80
2019-02-06T14:10:30.258Z,99066.34
2019-02-06T14:13:18.940Z,99064.52
2019-02-06T14:16:07.612Z,99069.05
2019-02-06T14:18:54.519Z,99060.08
2019-02-06T14:21:41.946Z,99057.48
2019-02-06T14:24:32.371Z,99058.63
2019-02-06T14:27:35.234Z,99046.22
2019-02-06T14:30:37.702Z,99043.61
2019-02-06T14:33:44.891Z,99045.12
2019-02-06T14:36:47.366Z,99033.87
2019-02-06T14:39:49.758Z,99041.10
2019-02-06T14:43:01.447Z,99022.93
2019-02-06T14:46:10.466Z,99019.22
2019-02-06T14:49:15.944Z,99013.44
2019-02-06T14:52:28.325Z,99012.50
2019-02-06T14:55:18.869Z,99013.35
2019-02-06T14:58:25.046Z,99009.03
2019-02-06T15:01:31.857Z,99010.06
2019-02-06T15:04:38.864Z,99003.91
2019-02-06T15:07:35.891Z,99006.12
2019-02-06T15:10:26.287Z,98992.16
2019-02-06T15:13:29.174Z,98991.45
2019-02-06T15:16:37.899Z,98998.00
2019-02-06T15:19:36.892Z,98994.00
2019-02-06T15:22:42.458Z,98986.36
2019-02-06T15:25:48.088Z,98981.64
2019-02-06T15:28:45.042Z,98976.38
2019-02-06T15:31:41.472Z,98973.49
2019-02-06T15:34:41.183Z,98984.55
2019-02-06T15:37:48.476Z,98974.92
2019-02-06T15:40:54.130Z,98977.44
2019-02-06T15:43:46.773Z,98981.68
2019-02-06T15:47:02.154Z,98977.38
2019-02-06T15:50:11.960Z,98968.81
2019-02-06T15:56:17.510Z,98976.97
2019-02-06T15:59:11.037Z,98977.62
2019-02-06T16:09:47.245Z,98983.91
2019-02-06T16:12:49.183Z,98976.07
2019-02-06T16:15:54.151Z,98971.36
2019-02-06T16:18:44.559Z,98966.86
2019-02-06T16:21:34.730Z,98962.34
2019-02-06T16:24:25.634Z,98962.34
2019-02-06T16:27:24.943Z,98963.11
2019-02-06T16:30:31.918Z,98962.02
2019-02-06T16:33:31.426Z,98954.59
2019-02-06T16:36:37.179Z,98952.20
2019-02-06T16:39:34.336Z,98954.55
2019-02-06T16:42:39.880Z,98952.74
2019-02-06T16:45:41.744Z,98957.58
2019-02-06T16:48:38.586Z,98961.39
2019-02-06T16:51:28.890Z,98965.05
2019-02-06T16:54:31.563Z,98960.50
2019-02-06T16:57:28.099Z,98962.33
2019-02-06T17:00:27.502Z,98963.41
2019-02-06T17:03:41.960Z,98962.66
2019-02-06T17:06:49.888Z,98960.41
2019-02-06T17:10:10.575Z,98956.73
2019-02-06T17:13:18.075Z,98956.12
2019-02-06T17:16:20.745Z,98955.91
2019-02-06T17:19:28.143Z,98954.71
2019-02-06T17:22:38.498Z,98952.33
2019-02-06T17:25:41.392Z,98954.92
2019-02-06T17:28:32.001Z,98954.94
2019-02-06T17:31:31.492Z,98949.98
2019-02-06T17:34:30.894Z,98951.69
2019-02-06T17:37:38.289Z,98944.12
2019-02-06T17:40:35.029Z,98944.59
2019-02-06T17:43:51.857Z,98944.05
2019-02-06T17:46:59.672Z,98931.84
2019-02-06T17:50:08.269Z,98937.75
2019-02-06T17:53:07.567Z,98929.28
2019-02-06T17:55:55.196Z,98926.53
2019-02-06T17:58:43.031Z,98929.61
2019-02-06T18:01:31.681Z,98920.63
2019-02-06T18:04:19.312Z,98925.70
2019-02-06T18:07:07.350Z,98923.74
2019-02-06T18:09:55.290Z,98929.36
2019-02-06T18:12:42.711Z,98918.72
2019-02-06T18:15:30.338Z,98929.61
2019-02-06T18:18:18.016Z,98919.48
2019-02-06T18:21:05.817Z,98916.98
2019-02-06T18:23:53.839Z,98919.67
2019-02-06T18:26:42.191Z,98920.45
2019-02-06T18:29:29.614Z,98915.88
2019-02-06T18:32:17.448Z,98908.76
2019-02-06T18:35:07.286Z,98906.47
2019-02-06T18:37:54.866Z,98901.70
2019-02-06T18:40:44.432Z,98907.43
2019-02-06T18:43:31.751Z,98906.41
2019-02-06T18:46:19.599Z,98908.31
2019-02-06T18:49:07.419Z,98914.27
2019-02-06T18:51:57.865Z,98906.71
2019-02-06T18:54:45.234Z,98902.16
2019-02-06T18:57:32.966Z,98900.45
2019-02-06T19:00:32.406Z,98897.31
2019-02-06T19:03:29.429Z,98888.78
2019-02-06T19:06:18.862Z,98883.58
2019-02-06T19:09:08.791Z,98873.18
2019-02-06T19:11:56.614Z,98862.22
2019-02-06T19:14:44.339Z,98859.36
2019-02-06T19:17:31.761Z,98854.13
2019-02-06T19:20:19.964Z,98848.06
2019-02-06T19:23:07.645Z,98837.75
2019-02-06T19:25:55.277Z,98844.70
2019-02-06T19:28:42.786Z,98843.59
2019-02-06T19:31:30.110Z,98831.38
2019-02-06T19:34:17.574Z,98836.44
2019-02-06T19:37:05.186Z,98826.88
2019-02-06T19:39:52.391Z,98824.31
2019-02-06T19:42:40.013Z,98819.72
2019-02-06T19:45:27.565Z,98815.45
2019-02-06T19:48:18.770Z,98815.92
2019-02-06T19:51:04.433Z,98811.00
2019-02-06T19:53:52.986Z,98811.15
2019-02-06T19:56:40.512Z,98811.40
2019-02-06T19:59:27.833Z,98816.28
2019-02-06T20:02:15.974Z,98815.59
2019-02-06T20:05:03.397Z,98804.60
2019-02-06T20:07:50.615Z,98801.75
2019-02-06T20:10:40.921Z,98798.42
2019-02-06T20:13:28.331Z,98793.17
2019-02-06T20:16:16.060Z,98786.33
2019-02-06T20:19:03.591Z,98780.77
2019-02-06T20:21:51.127Z,98775.59
2019-02-06T20:24:38.134Z,98774.42
2019-02-06T20:27:25.759Z,98781.59
2019-02-06T20:30:16.152Z,98783.23
2019-02-06T20:33:03.274Z,98785.93
2019-02-06T20:35:50.282Z,98780.77
2019-02-06T20:38:37.813Z,98779.28
2019-02-06T20:41:25.440Z,98773.86
2019-02-06T20:44:13.273Z,98769.55
2019-02-06T20:47:00.697Z,98774.73
2019-02-06T20:49:48.621Z,98758.63
2019-02-06T20:52:36.261Z,98749.30
2019-02-06T20:55:23.787Z,98752.88
2019-02-06T20:58:11.416Z,98748.98
2019-02-06T21:01:00.172Z,98745.23
2019-02-06T21:03:48.068Z,98751.95
2019-02-06T21:06:35.224Z,98737.52
2019-02-06T21:09:22.963Z,98732.07
2019-02-06T21:12:10.379Z,98722.67
2019-02-06T21:14:58.011Z,98725.02
2019-02-06T21:17:45.741Z,98727.73
2019-02-06T21:20:33.576Z,98736.27
2019-02-06T21:23:21.305Z,98739.45
2019-02-06T21:26:08.731Z,98746.06
2019-02-06T21:28:56.258Z,98745.41
2019-02-06T21:31:44.189Z,98731.23
2019-02-06T21:34:32.027Z,98736.61
2019-02-06T21:37:20.371Z,98722.02
2019-02-06T21:40:14.246Z,98719.56
2019-02-06T21:43:01.774Z,98722.20
2019-02-06T21:45:48.891Z,98728.23
2019-02-06T21:48:36.516Z,98726.00
2019-02-06T21:51:23.633Z,98724.95
2019-02-06T21:54:11.366Z,98711.36
2019-02-06T21:56:59.097Z,98706.16
2019-02-06T21:59:46.623Z,98703.84
2019-02-06T22:02:33.740Z,98697.01
2019-02-06T22:05:21.162Z,98691.80
2019-02-06T22:08:08.998Z,98686.12
2019-02-06T22:10:56.294Z,98685.61
2019-02-06T22:13:54.722Z,98689.38
2019-02-06T22:16:32.394Z,98679.77
2019-02-06T22:19:19.971Z,98684.03
2019-02-06T22:22:07.449Z,98684.50
2019-02-06T22:24:54.566Z,98680.20
2019-02-06T22:27:42.503Z,98669.80
2019-02-06T22:30:30.845Z,98674.05
2019-02-06T22:33:18.474Z,98672.86
2019-02-06T22:36:05.797Z,98494.69
2019-02-06T22:38:53.663Z,98683.46
2019-02-06T22:41:41.156Z,98682.95
2019-02-06T22:44:28.586Z,98682.30
2019-02-06T22:47:15.800Z,98688.55
2019-02-06T22:50:03.125Z,98674.28
2019-02-06T22:52:50.545Z,98669.19
2019-02-06T22:55:37.763Z,98660.91
2019-02-06T22:58:25.597Z,98654.30
2019-02-06T23:01:24.660Z,98648.84
2019-02-06T23:04:12.227Z,98661.70
2019-02-06T23:07:00.056Z,98653.79
2019-02-06T23:09:47.686Z,98654.70
2019-02-06T23:12:34.906Z,98654.05
2019-02-06T23:15:22.436Z,98642.73
2019-02-06T23:18:10.438Z,98645.95
2019-02-06T23:20:58.710Z,98646.64
2019-02-06T23:23:45.828Z,98642.73
2019-02-06T23:26:33.769Z,98633.05
2019-02-06T23:29:21.294Z,98632.95
2019-02-06T23:32:08.821Z,98633.92
2019-02-06T23:34:56.551Z,98634.39
2019-02-06T23:37:44.178Z,98631.83
2019-02-06T23:40:31.601Z,98625.00
2019-02-06T23:43:18.922Z,98613.63
2019-02-06T23:46:06.654Z,98606.91
2019-02-06T23:48:54.179Z,98611.17
2019-02-06T23:51:41.604Z,98600.27
2019-02-06T23:54:29.028Z,98590.80
2019-02-06T23:57:16.353Z,98586.32
